Time;durP1;ratioP1;P1;durP2;ratioP2;P2;SDS_P1;SDS_P2;PMS_P1;PMS_P2;Temp;Humidity;BMP_temperature;BMP_pressure;BME280_temperature;BME280_humidity;BME280_pressure;Samples;Min_cycle;Max_cycle;Signal;HPM_P1;HPM_P2
2022/09/22 00:02:23;;;;;;;9.40;7.43;;;;;;;5.34;100.00;161963.47;4990965;28;20034;-63
2022/09/22 00:04:48;;;;;;;7.05;6.45;;;;;;;5.32;100.00;161956.75;4990166;28;20041;-63
2022/09/22 00:07:13;;;;;;;9.05;6.00;;;;;;;5.25;100.00;161939.25;4991290;28;20101;-64
2022/09/22 00:09:39;;;;;;;11.20;5.88;;;;;;;5.23;100.00;161933.91;4989621;28;20564;-63
2022/09/22 00:12:04;;;;;;;8.88;7.38;;;;;;;5.16;100.00;161916.41;4991482;28;20026;-65
2022/09/22 00:14:29;;;;;;;12.88;8.23;;;;;;;5.23;100.00;161935.22;4989628;28;20074;-65
2022/09/22 00:17:00;;;;;;;7.63;6.90;;;;;;;5.22;100.00;161931.19;4990895;28;20026;-65
2022/09/22 00:19:31;;;;;;;7.20;5.88;;;;;;;5.17;100.00;161917.78;4990000;28;20129;-64
2022/09/22 00:21:56;;;;;;;7.97;6.30;;;;;;;5.10;100.00;161900.25;4991321;28;20029;-64
2022/09/22 00:24:23;;;;;;;8.05;6.80;;;;;;;5.08;100.00;161896.25;4989403;28;20045;-64
2022/09/22 00:26:50;;;;;;;7.50;6.80;;;;;;;5.05;100.00;161888.16;4991325;28;20532;-64
2022/09/22 00:29:16;;;;;;;7.30;6.55;;;;;;;5.03;100.00;161882.75;4989599;28;20054;-64
2022/09/22 00:31:42;;;;;;;8.55;7.65;;;;;;;5.02;100.00;161878.75;4990659;28;20047;-64
2022/09/22 00:34:13;;;;;;;9.18;7.43;;;;;;;5.01;100.00;161877.41;4989711;28;20045;-64
2022/09/22 00:36:38;;;;;;;12.13;8.23;;;;;;;5.04;100.00;161885.47;4991087;28;20023;-64
2022/09/22 00:39:04;;;;;;;7.85;7.13;;;;;;;5.02;100.00;161880.13;4989167;28;20038;-64
2022/09/22 00:41:36;;;;;;;7.03;6.32;;;;;;;5.00;100.00;161873.34;4993596;28;20029;-64
2022/09/22 00:44:30;;;;;;;8.05;7.35;;;;;;;4.95;100.00;161859.91;4992952;28;20046;-64
2022/09/22 00:47:00;;;;;;;11.32;7.85;;;;;;;4.85;100.00;161834.38;4994505;28;20076;-65
2022/09/22 00:50:06;;;;;;;11.52;7.57;;;;;;;4.90;100.00;161847.81;4993105;28;20050;-65
2022/09/22 00:52:37;;;;;;;10.68;8.20;;;;;;;4.90;100.00;161847.81;4993524;28;20038;-65
2022/09/22 00:55:10;;;;;;;8.93;8.07;;;;;;;4.89;100.00;161846.47;4992475;28;20038;-65
2022/09/22 00:57:37;;;;;;;8.75;8.00;;;;;;;4.86;100.00;161838.41;4994317;28;20030;-65
2022/09/22 01:00:05;;;;;;;7.90;7.05;;;;;;;4.82;100.00;161827.66;4992341;28;20073;-65
2022/09/22 01:02:31;;;;;;;6.67;6.03;;;;;;;4.76;100.00;161812.84;4994310;28;20113;-65
2022/09/22 01:04:56;;;;;;;4.43;3.72;;;;;;;4.78;100.00;161815.56;4992776;28;20133;-65
2022/09/22 01:07:25;;;;;;;5.38;4.97;;;;;;;4.61;100.00;161772.50;4994218;28;20029;-65
2022/09/22 01:09:51;;;;;;;11.82;7.75;;;;;;;4.61;100.00;161772.50;4992729;28;20502;-63
2022/09/22 01:12:18;;;;;;;11.30;7.32;;;;;;;4.58;100.00;161764.44;4994265;28;20033;-64
2022/09/22 01:15:11;;;;;;;10.02;7.13;;;;;;;4.59;100.00;161767.13;4992282;28;20038;-64
2022/09/22 01:17:58;;;;;;;8.43;7.57;;;;;;;4.57;100.00;161763.09;4993871;28;20031;-63
2022/09/22 01:20:41;;;;;;;10.20;8.45;;;;;;;4.58;100.00;161764.44;4992588;28;20046;-64
2022/09/22 01:23:27;;;;;;;10.13;8.68;;;;;;;4.61;100.00;161772.50;4993039;28;20077;-63
2022/09/22 01:26:31;;;;;;;7.60;6.78;;;;;;;4.58;100.00;161765.81;4992205;28;21773;-63
2022/09/22 01:29:32;;;;;;;9.98;9.07;;;;;;;4.55;100.00;161756.38;4991555;28;20039;-65
2022/09/22 01:32:12;;;;;;;11.60;9.43;;;;;;;4.56;100.00;161759.09;4982370;28;20053;-65
2022/09/22 01:35:04;;;;;;;11.00;9.82;;;;;;;4.61;100.00;161772.50;4992503;28;20042;-65
2022/09/22 01:37:57;;;;;;;11.68;8.57;;;;;;;4.59;100.00;161767.13;4992900;28;20022;-64
2022/09/22 01:40:41;;;;;;;20.15;8.50;;;;;;;4.58;100.00;161764.44;4992277;28;20073;-64
2022/09/22 01:43:46;;;;;;;10.13;6.93;;;;;;;4.54;100.00;161753.69;4993504;28;20635;-64
2022/09/22 01:46:24;;;;;;;10.27;9.27;;;;;;;4.51;100.00;161745.59;4992052;28;20054;-64
2022/09/22 01:48:51;;;;;;;16.23;9.00;;;;;;;4.49;100.00;161740.25;4992289;28;20058;-65
2022/09/22 01:51:57;;;;;;;10.98;9.73;;;;;;;4.44;100.00;161729.47;4992787;28;20037;-65
2022/09/22 01:54:31;;;;;;;14.05;10.10;;;;;;;4.41;100.00;161720.06;4991946;28;20073;-65
2022/09/22 01:57:08;;;;;;;9.90;9.00;;;;;;;4.42;100.00;161724.13;4993220;28;20027;-65
2022/09/22 01:59:37;;;;;;;12.43;10.98;;;;;;;4.40;100.00;161717.38;4991698;28;20042;-66
2022/09/22 02:02:10;;;;;;;11.02;9.52;;;;;;;4.37;100.00;161709.34;4993201;28;20026;-66
2022/09/22 02:04:49;;;;;;;16.05;10.10;;;;;;;4.36;100.00;161707.97;4991947;28;20043;-66
2022/09/22 02:07:23;;;;;;;13.20;10.65;;;;;;;4.36;100.00;161707.97;4992418;28;20061;-66
2022/09/22 02:09:49;;;;;;;11.40;10.20;;;;;;;4.36;100.00;161707.97;4991656;28;20038;-66
2022/09/22 02:12:18;;;;;;;14.50;11.50;;;;;;;4.36;100.00;161707.97;4993037;28;20070;-65
2022/09/22 02:14:45;;;;;;;12.85;11.52;;;;;;;4.37;100.00;161709.34;4991158;28;20042;-65
2022/09/22 02:17:13;;;;;;;10.02;9.02;;;;;;;4.33;100.00;161699.94;4992840;28;20033;-66
2022/09/22 02:19:39;;;;;;;10.15;9.23;;;;;;;4.33;100.00;161698.56;4991377;28;20472;-66
2022/09/22 02:22:07;;;;;;;10.15;9.27;;;;;;;4.29;100.00;161690.53;4992618;28;20038;-65
2022/09/22 02:24:46;;;;;;;12.18;10.75;;;;;;;4.31;100.00;161693.22;4991064;28;20038;-65
2022/09/22 02:27:25;;;;;;;12.00;10.82;;;;;;;4.32;100.00;161697.22;4992837;28;20033;-65
2022/09/22 02:30:21;;;;;;;10.98;9.98;;;;;;;4.30;100.00;161691.84;4991109;28;20034;-65
2022/09/22 02:32:49;;;;;;;13.20;8.32;;;;;;;4.28;100.00;161686.50;4980078;28;20490;-66
2022/09/22 02:35:15;;;;;;;15.95;10.27;;;;;;;4.24;100.00;161675.72;4990776;28;20073;-66
2022/09/22 02:37:50;;;;;;;10.75;9.85;;;;;;;4.23;100.00;161673.03;4990912;28;20073;-66
2022/09/22 02:40:38;;;;;;;12.23;11.23;;;;;;;4.22;100.00;161670.34;4990944;28;20034;-66
2022/09/22 02:43:31;;;;;;;13.17;11.03;;;;;;;4.21;100.00;161667.63;4992016;28;20027;-66
2022/09/22 02:46:15;;;;;;;11.05;10.05;;;;;;;4.16;100.00;161655.59;4990920;28;20121;-67
2022/09/22 02:48:48;;;;;;;11.23;10.00;;;;;;;4.13;100.00;161647.50;4991324;28;20054;-66
2022/09/22 02:51:15;;;;;;;11.43;10.23;;;;;;;4.10;100.00;161640.78;4992047;28;20022;-66
2022/09/22 02:53:40;;;;;;;11.40;10.32;;;;;;;4.08;100.00;161635.41;4991013;28;20046;-64
2022/09/22 02:56:06;;;;;;;12.20;9.68;;;;;;;4.07;100.00;161632.69;4991857;28;20101;-64
2022/09/22 02:58:31;;;;;;;13.18;11.77;;;;;;;4.05;100.00;161626.00;4990247;28;20030;-64
2022/09/22 03:00:56;;;;;;;12.82;11.50;;;;;;;4.03;100.00;161620.59;4992324;28;20026;-65
2022/09/22 03:03:22;;;;;;;12.15;10.35;;;;;;;3.99;100.00;161611.19;4990464;28;20043;-65
2022/09/22 03:05:47;;;;;;;11.02;10.00;;;;;;;3.98;100.00;161608.53;4991910;28;20026;-65
2022/09/22 03:08:12;;;;;;;13.93;12.43;;;;;;;3.94;100.00;161597.78;4992125;28;20489;-64
2022/09/22 03:10:38;;;;;;;14.68;7.85;;;;;;;3.88;100.00;161581.66;4990509;28;20034;-64
2022/09/22 03:13:03;;;;;;;10.52;9.50;;;;;;;3.79;100.00;161560.16;4991272;28;20026;-64
2022/09/22 03:15:29;;;;;;;12.13;10.55;;;;;;;3.83;100.00;161569.56;4990510;28;20050;-63
2022/09/22 03:17:54;;;;;;;11.52;10.38;;;;;;;3.83;100.00;161568.22;4991903;28;20474;-63
2022/09/22 03:20:20;;;;;;;10.65;9.48;;;;;;;3.82;100.00;161566.84;4989922;28;20606;-62
2022/09/22 03:22:45;;;;;;;10.00;9.13;;;;;;;3.80;100.00;161562.84;4991840;28;20044;-64
2022/09/22 03:25:11;;;;;;;13.43;10.68;;;;;;;3.79;100.00;161560.16;4990196;28;20037;-63
2022/09/22 03:27:37;;;;;;;12.98;11.82;;;;;;;3.80;100.00;161561.47;4991391;28;20060;-63
2022/09/22 03:30:04;;;;;;;13.73;12.57;;;;;;;3.79;100.00;161560.16;4989909;28;20042;-63
2022/09/22 03:32:30;;;;;;;14.10;12.80;;;;;;;3.77;100.00;161553.44;4991817;28;20096;-63
2022/09/22 03:34:56;;;;;;;11.85;10.73;;;;;;;3.75;100.00;161549.41;4990111;28;20049;-64
2022/09/22 03:37:21;;;;;;;14.13;12.35;;;;;;;3.74;100.00;161546.72;4991409;28;20430;-66
2022/09/22 03:39:46;;;;;;;11.30;10.30;;;;;;;3.74;100.00;161546.72;4990032;28;20077;-66
2022/09/22 03:42:12;;;;;;;12.82;11.48;;;;;;;3.76;100.00;161552.06;4991042;28;20022;-66
2022/09/22 03:44:37;;;;;;;11.23;10.18;;;;;;;3.73;100.00;161544.03;4990290;28;20045;-66
2022/09/22 03:47:03;;;;;;;14.05;12.75;;;;;;;3.72;100.00;161541.34;4991622;28;20478;-65
2022/09/22 03:49:28;;;;;;;15.20;13.57;;;;;;;3.71;100.00;161538.63;4989948;28;20097;-66
2022/09/22 03:51:54;;;;;;;15.05;11.20;;;;;;;3.71;100.00;161538.63;4991426;28;20045;-66
2022/09/22 03:54:20;;;;;;;13.25;11.95;;;;;;;3.67;100.00;161527.91;4989783;28;20046;-66
2022/09/22 03:56:46;;;;;;;17.17;14.15;;;;;;;3.71;100.00;161537.31;4991628;28;20027;-66
2022/09/22 03:59:12;;;;;;;15.57;12.80;;;;;;;3.69;100.00;161533.25;4989701;28;20037;-66
2022/09/22 04:01:37;;;;;;;14.50;13.00;;;;;;;3.67;100.00;161527.91;4991824;28;20031;-65
2022/09/22 04:04:03;;;;;;;14.27;12.88;;;;;;;3.68;100.00;161529.25;4989947;28;20530;-65
2022/09/22 04:06:28;;;;;;;14.23;12.85;;;;;;;3.63;100.00;161517.13;4991206;28;20391;-64
2022/09/22 04:08:54;;;;;;;14.73;13.18;;;;;;;3.60;100.00;161509.09;4989766;28;20047;-63
2022/09/22 04:11:19;;;;;;;15.80;14.25;;;;;;;3.58;100.00;161503.72;4990920;28;20496;-64
2022/09/22 04:13:45;;;;;;;15.75;13.93;;;;;;;3.56;100.00;161499.69;4989426;28;20457;-62
2022/09/22 04:16:10;;;;;;;17.60;14.35;;;;;;;3.55;100.00;161497.00;4993174;28;20429;-62
2022/09/22 04:18:38;;;;;;;16.40;14.73;;;;;;;3.60;100.00;161509.09;4993252;28;20034;-60
2022/09/22 04:21:04;;;;;;;18.38;16.50;;;;;;;3.62;100.00;161514.44;4994248;28;20426;-65
2022/09/22 04:23:29;;;;;;;16.95;14.18;;;;;;;3.62;100.00;161514.44;4993498;28;20030;-65
2022/09/22 04:25:55;;;;;;;15.25;13.73;;;;;;;3.60;100.00;161509.09;4995010;28;20030;-65
2022/09/22 04:28:20;;;;;;;17.30;15.60;;;;;;;3.59;100.00;161506.41;4992511;28;20033;-63
2022/09/22 04:30:45;;;;;;;14.85;13.20;;;;;;;3.58;100.00;161503.72;4994959;28;20050;-65
2022/09/22 04:33:11;;;;;;;15.82;14.23;;;;;;;3.58;100.00;161503.72;4994733;28;20019;-64
2022/09/22 04:35:36;;;;;;;13.95;12.65;;;;;;;3.53;100.00;161491.63;4993194;28;20096;-65
2022/09/22 04:38:02;;;;;;;12.95;11.75;;;;;;;3.52;100.00;161487.59;4994396;28;20040;-65
2022/09/22 04:40:28;;;;;;;14.75;13.38;;;;;;;3.49;100.00;161482.22;4992450;28;20097;-66
2022/09/22 04:42:53;;;;;;;19.58;15.05;;;;;;;3.51;100.00;161484.91;4994273;28;20231;-66
2022/09/22 04:45:19;;;;;;;16.35;14.07;;;;;;;3.47;100.00;161476.84;4993104;28;20046;-63
2022/09/22 04:47:45;;;;;;;15.93;14.40;;;;;;;3.46;100.00;161474.13;4994688;28;20032;-63
2022/09/22 04:50:11;;;;;;;14.43;13.02;;;;;;;3.43;100.00;161466.09;4992646;28;20039;-63
2022/09/22 04:52:36;;;;;;;13.18;11.77;;;;;;;3.38;100.00;161452.69;4994807;28;20018;-63
2022/09/22 04:55:01;;;;;;;14.32;11.80;;;;;;;3.36;100.00;161445.94;4992600;28;20489;-63
2022/09/22 04:57:27;;;;;;;239.80;17.77;;;;;;;3.34;100.00;161441.91;4993991;28;20096;-63
2022/09/22 04:59:52;;;;;;;38.50;10.95;;;;;;;3.29;100.00;161428.50;4992975;28;20038;-64
2022/09/22 05:02:17;;;;;;;16.52;12.38;;;;;;;3.24;100.00;161415.09;4994096;28;20042;-64
2022/09/22 05:04:43;;;;;;;16.08;13.75;;;;;;;3.23;100.00;161413.72;4992760;28;20552;-62
2022/09/22 05:07:08;;;;;;;13.25;11.90;;;;;;;3.24;100.00;161415.09;4993890;28;20027;-63
2022/09/22 05:09:34;;;;;;;18.65;12.85;;;;;;;3.25;100.00;161417.72;4992835;28;20042;-62
2022/09/22 05:12:00;;;;;;;14.52;13.07;;;;;;;3.26;100.00;161420.41;4993918;28;20026;-62
2022/09/22 05:14:25;;;;;;;15.25;13.45;;;;;;;3.28;100.00;161427.13;4992812;28;20633;-62
2022/09/22 05:16:51;;;;;;;16.15;13.10;;;;;;;3.30;100.00;161431.19;4994095;28;20026;-62
2022/09/22 05:19:16;;;;;;;15.20;13.48;;;;;;;3.31;100.00;161433.88;4992133;28;20043;-62
2022/09/22 05:21:42;;;;;;;17.00;14.63;;;;;;;3.32;100.00;161437.91;4994200;28;20505;-63
2022/09/22 05:24:08;;;;;;;15.00;13.60;;;;;;;3.34;100.00;161441.91;4992097;28;20046;-62
2022/09/22 05:26:33;;;;;;;13.77;11.98;;;;;;;3.33;100.00;161439.22;4993174;28;20030;-62
2022/09/22 05:28:58;;;;;;;11.95;10.85;;;;;;;3.32;100.00;161436.53;4992277;28;20387;-60
2022/09/22 05:31:24;;;;;;;15.88;14.35;;;;;;;3.27;100.00;161423.09;4993692;28;20053;-60
2022/09/22 05:33:49;;;;;;;17.52;13.60;;;;;;;3.30;100.00;161431.19;4990125;28;20040;-60
2022/09/22 05:36:15;;;;;;;15.55;13.07;;;;;;;3.30;100.00;161431.19;4993453;28;20026;-60
2022/09/22 05:38:41;;;;;;;15.48;13.88;;;;;;;3.27;100.00;161423.09;4992082;28;20551;-60
2022/09/22 05:41:06;;;;;;;14.65;13.13;;;;;;;3.28;100.00;161427.13;4993242;28;20389;-60
2022/09/22 05:43:31;;;;;;;13.90;11.65;;;;;;;3.31;100.00;161433.88;4992121;28;20048;-60
2022/09/22 05:45:57;;;;;;;15.15;13.65;;;;;;;3.36;100.00;161447.31;4993605;28;20034;-60
2022/09/22 05:48:22;;;;;;;17.05;14.32;;;;;;;3.38;100.00;161451.31;4991837;28;20049;-60
2022/09/22 05:50:48;;;;;;;15.43;13.60;;;;;;;3.44;100.00;161468.81;4993353;28;20481;-60
2022/09/22 05:53:13;;;;;;;13.18;11.82;;;;;;;3.48;100.00;161479.53;4993331;28;20031;-60
2022/09/22 05:55:39;;;;;;;13.73;12.43;;;;;;;3.52;100.00;161487.59;4991581;28;20050;-60
2022/09/22 05:58:05;;;;;;;16.88;14.65;;;;;;;3.54;100.00;161494.31;4992985;28;20034;-60
2022/09/22 06:00:31;;;;;;;14.20;12.88;;;;;;;3.59;100.00;161506.41;4992090;28;20387;-60
2022/09/22 06:02:57;;;;;;;17.45;13.75;;;;;;;3.62;100.00;161514.44;4992916;28;20504;-60
2022/09/22 06:05:23;;;;;;;16.58;14.30;;;;;;;3.63;100.00;161518.50;4991736;28;20062;-60
2022/09/22 06:08:02;;;;;;;17.05;15.40;;;;;;;3.72;100.00;161540.00;4992993;28;20045;-60
2022/09/22 06:10:27;;;;;;;;;;;;;;;3.77;100.00;161554.75;4991971;28;20046;-60
2022/09/22 06:13:07;;;;;;;27.58;15.80;;;;;;;3.81;100.00;161565.53;4993003;28;19909;-60
2022/09/22 06:15:34;;;;;;;22.40;19.00;;;;;;;3.86;100.00;161576.25;4991441;28;20497;-60
2022/09/22 06:18:01;;;;;;;19.95;17.90;;;;;;;3.93;100.00;161595.06;4992583;28;20022;-60
2022/09/22 06:20:26;;;;;;;20.33;17.92;;;;;;;4.01;100.00;161615.25;4991526;28;20045;-60
2022/09/22 06:22:53;;;;;;;19.67;17.60;;;;;;;4.09;100.00;161638.09;4992727;28;20027;-60
2022/09/22 06:25:19;;;;;;;22.00;19.73;;;;;;;4.19;100.00;161662.31;4990759;28;20070;-60
2022/09/22 06:27:45;;;;;;;18.27;15.98;;;;;;;4.31;100.00;161694.53;4992667;28;20029;-60
2022/09/22 06:30:12;;;;;;;20.20;18.20;;;;;;;4.43;100.00;161726.78;4988270;28;20042;-60
2022/09/22 06:32:38;;;;;;;22.17;19.67;;;;;;;4.59;100.00;161767.13;5005323;28;20030;-60
2022/09/22 06:35:07;;;;;;;22.65;19.85;;;;;;;4.74;100.00;161807.47;5010597;28;20651;-60
2022/09/22 06:37:34;;;;;;;24.83;21.63;;;;;;;4.91;100.00;161850.50;4998346;28;20034;-60
2022/09/22 06:40:00;;;;;;;24.48;21.98;;;;;;;5.08;100.00;161896.25;4990106;28;20133;-60
2022/09/22 06:42:25;;;;;;;30.13;26.85;;;;;;;5.26;100.00;161941.94;4992474;28;20541;-60
2022/09/22 06:44:52;;;;;;;40.05;22.42;;;;;;;5.45;100.00;161990.41;4990879;28;20038;-60
2022/09/22 06:47:18;;;;;;;32.35;27.40;;;;;;;5.62;100.00;162034.78;4991796;28;20026;-60
2022/09/22 06:49:43;;;;;;;33.97;26.45;;;;;;;5.82;100.00;162087.25;4990931;28;20049;-60
2022/09/22 06:52:11;;;;;;;30.60;26.90;;;;;;;6.01;100.00;162138.44;4991938;28;20517;-60
2022/09/22 06:54:40;;;;;;;43.05;29.80;;;;;;;6.23;100.00;162193.63;4990441;28;20554;-60
2022/09/22 06:57:06;;;;;;;31.60;28.20;;;;;;;6.43;100.00;162246.13;4992128;28;20040;-60
2022/09/22 06:59:34;;;;;;;37.15;29.13;;;;;;;6.66;100.00;162308.03;4990826;28;20506;-60
2022/09/22 07:02:03;;;;;;;30.98;27.88;;;;;;;6.88;100.00;162364.63;4991544;28;20023;-60
2022/09/22 07:04:28;;;;;;;29.85;26.77;;;;;;;7.10;100.00;162421.19;4990826;28;20069;-60
2022/09/22 07:06:53;;;;;;;27.55;23.08;;;;;;;7.32;100.00;162477.75;4992035;28;20437;-60
2022/09/22 07:09:20;;;;;;;35.08;25.92;;;;;;;7.50;100.00;162526.19;4989811;28;20046;-59
2022/09/22 07:11:46;;;;;;;33.15;23.80;;;;;;;7.72;100.00;162582.78;4991863;28;20430;-60
2022/09/22 07:14:11;;;;;;;28.58;23.90;;;;;;;7.91;100.00;162634.00;4990345;28;20045;-60
2022/09/22 07:16:36;;;;;;;26.05;22.85;;;;;;;8.08;100.00;162677.09;4991828;28;20034;-60
2022/09/22 07:19:03;;;;;;;23.48;20.08;;;;;;;8.25;100.00;162722.94;4989991;28;20030;-60
2022/09/22 07:21:34;;;;;;;22.23;19.65;;;;;;;8.49;100.00;162785.00;4990900;28;20105;-60
2022/09/22 07:23:59;;;;;;;28.25;20.13;;;;;;;8.69;100.00;162837.59;4990241;28;20423;-59
2022/09/22 07:26:31;;;;;;;21.05;18.70;;;;;;;8.94;100.00;162900.94;4991455;28;20029;-60
2022/09/22 07:28:58;;;;;;;25.40;16.98;;;;;;;9.16;100.00;162958.91;4990440;28;20044;-60
2022/09/22 07:31:25;;;;;;;18.63;16.85;;;;;;;9.39;100.00;163019.63;4991614;28;20132;-60
2022/09/22 07:33:52;;;;;;;19.73;16.17;;;;;;;9.63;100.00;163081.69;4990238;28;20062;-60
2022/09/22 07:36:20;;;;;;;18.20;16.27;;;;;;;9.93;100.00;163159.94;4991510;28;20065;-60
2022/09/22 07:38:48;;;;;;;18.02;15.70;;;;;;;10.35;100.00;163270.56;4990108;28;20039;-60
2022/09/22 07:41:19;;;;;;;20.65;16.30;;;;;;;11.05;100.00;163452.84;4991290;28;20026;-61
2022/09/22 07:43:47;;;;;;;21.35;14.00;;;;;;;11.93;100.00;163682.41;4990438;28;20046;-61
2022/09/22 07:46:12;;;;;;;12.82;10.20;;;;;;;12.66;100.00;163874.34;4991314;28;20029;-60
2022/09/22 07:48:46;;;;;;;12.88;11.23;;;;;;;13.08;100.00;163983.81;4990200;28;20026;-61
2022/09/22 07:51:17;;;;;;;11.95;10.75;;;;;;;13.27;100.00;164035.22;4993411;28;20552;-60
2022/09/22 07:53:44;;;;;;;21.17;10.15;;;;;;;13.15;100.00;164002.75;4993773;28;20065;-59
2022/09/22 07:56:12;;;;;;;15.27;11.88;;;;;;;12.84;100.00;163921.69;4994387;28;20370;-59
2022/09/22 07:58:49;;;;;;;13.85;10.52;;;;;;;12.94;100.00;163948.69;4993316;28;20049;-60
2022/09/22 08:01:15;;;;;;;15.32;9.18;;;;;;;12.97;100.00;163956.81;4994624;28;20105;-60
2022/09/22 08:03:41;;;;;;;10.98;9.57;;;;;;;-146.58;100.00;69501.63;4994657;28;20023;-60
2022/09/22 08:06:11;;;;;;;15.57;9.52;;;;;;;-146.58;100.00;69501.63;4996895;28;20034;-60
2022/09/22 08:08:42;;;;;;;16.23;9.75;;;;;;;13.04;100.00;163973.03;4993875;28;20026;-60
2022/09/22 08:11:13;;;;;;;16.60;10.48;;;;;;;13.33;100.00;164051.44;4995079;28;20034;-61
2022/09/22 08:13:41;;;;;;;14.30;10.07;;;;;;;13.39;100.00;164066.38;4993582;28;20390;-60
2022/09/22 08:16:07;;;;;;;22.05;10.57;;;;;;;13.26;100.00;164031.16;4994773;28;20027;-60
2022/09/22 08:18:35;;;;;;;14.65;8.80;;;;;;;13.42;100.00;164073.13;4993567;28;20512;-60
2022/09/22 08:21:00;;;;;;;21.17;9.60;;;;;;;13.58;100.00;164116.41;4994758;28;20045;-61
2022/09/22 08:23:28;;;;;;;14.10;9.10;;;;;;;13.73;100.00;164154.28;4993373;28;20022;-60
2022/09/22 08:25:53;;;;;;;16.30;10.25;;;;;;;13.75;100.00;164159.66;4995160;28;20077;-60
2022/09/22 08:28:18;;;;;;;16.58;11.18;;;;;;;13.72;100.00;164151.56;4994713;28;20485;-60
2022/09/22 08:30:45;;;;;;;16.92;10.40;;;;;;;13.63;100.00;164129.94;4992982;28;20058;-60
2022/09/22 08:33:10;;;;;;;18.85;10.70;;;;;;;13.69;100.00;164144.81;4994996;28;20038;-61
2022/09/22 08:35:36;;;;;;;20.13;10.43;;;;;;;13.84;100.00;164184.00;4991226;28;20143;-58
2022/09/22 08:38:01;;;;;;;18.67;8.23;;;;;;;13.99;100.00;164223.25;5005170;28;20096;-61
2022/09/22 08:40:28;;;;;;;16.05;10.27;;;;;;;14.15;100.00;164265.19;5011890;28;20049;-61
2022/09/22 08:42:54;;;;;;;13.00;8.07;;;;;;;14.41;100.00;164334.19;5000613;28;20030;-61
2022/09/22 08:45:31;;;;;;;19.25;9.45;;;;;;;14.68;100.00;164404.56;4991703;28;20764;-61
2022/09/22 08:53:50;;;;;;;14.88;8.98;;;;;;;15.17;100.00;164533.13;4991925;28;20081;-59
2022/09/22 08:56:43;;;;;;;11.75;8.02;;;;;;;15.31;100.00;164569.69;4994056;28;20031;-61
2022/09/22 08:59:14;;;;;;;9.95;7.88;;;;;;;15.56;100.00;164634.69;4992732;28;20034;-60
2022/09/22 09:02:12;;;;;;;10.27;7.22;;;;;;;15.63;100.00;164652.25;4993372;28;20026;-60
2022/09/22 09:05:08;;;;;;;15.40;9.43;;;;;;;15.59;100.00;164641.47;4994729;28;20528;-59
2022/09/22 09:08:03;;;;;;;14.02;7.78;;;;;;;15.41;100.00;164594.06;4999139;28;20038;-60
2022/09/22 09:10:56;;;;;;;14.88;8.07;;;;;;;15.39;100.00;164589.97;4992557;28;20442;-60
2022/09/22 09:13:47;;;;;;;9.75;6.78;;;;;;;15.45;100.00;164606.22;4994017;28;20492;-57
2022/09/22 09:16:24;;;;;;;10.68;8.05;;;;;;;15.74;100.00;164682.06;4993857;28;20027;-58
2022/09/22 09:19:13;;;;;;;12.75;8.27;;;;;;;15.69;100.00;164668.50;4992629;28;20060;-57
2022/09/22 09:21:44;;;;;;;11.50;6.63;;;;;;;15.83;100.00;164705.13;4993992;28;20022;-58
2022/09/22 09:24:17;;;;;;;10.75;7.80;;;;;;;15.98;100.00;164745.75;4992109;28;20099;-58
2022/09/22 09:26:43;;;;;;;14.60;7.07;;;;;;;16.21;100.00;164805.34;4994212;28;20023;-58
2022/09/22 09:29:16;;;;;;;13.55;6.82;;;;;;;16.23;100.00;164809.41;4992353;28;20108;-58
2022/09/22 09:31:47;;;;;;;18.45;7.25;;;;;;;16.38;100.00;164850.03;4993224;28;20053;-58
2022/09/22 09:34:16;;;;;;;8.10;6.50;;;;;;;16.43;100.00;164863.56;4992179;28;20494;-58
2022/09/22 09:36:45;;;;;;;8.77;6.18;;;;;;;16.55;100.00;164893.38;4994040;28;20027;-58
2022/09/22 09:39:17;;;;;;;12.95;7.18;;;;;;;16.72;100.00;164939.41;4991812;28;20109;-58
2022/09/22 09:41:47;;;;;;;8.15;5.40;;;;;;;16.96;100.00;165001.78;4993625;28;20030;-58
2022/09/22 09:44:37;;;;;;;22.58;9.23;;;;;;;17.35;100.00;165104.78;4991937;28;20038;-58
2022/09/22 09:47:17;;;;;;;24.55;9.65;;;;;;;17.62;100.00;165175.25;4993321;28;20030;-58
2022/09/22 09:49:42;;;;;;;9.70;6.38;;;;;;;17.72;100.00;165202.38;4992155;28;20042;-58
2022/09/22 09:52:11;;;;;;;9.70;6.75;;;;;;;17.64;100.00;165180.69;4992960;28;20022;-58
2022/09/22 09:54:38;;;;;;;8.45;5.40;;;;;;;17.71;100.00;165199.66;4992213;28;20045;-58
2022/09/22 09:57:18;;;;;;;11.02;5.25;;;;;;;17.75;100.00;165210.53;4994032;28;20060;-58
2022/09/22 10:00:31;;;;;;;10.77;5.03;;;;;;;17.95;100.00;165260.63;4991130;28;20050;-58
2022/09/22 10:03:31;;;;;;;11.00;6.47;;;;;;;17.86;100.00;165237.59;4980075;28;20482;-58
2022/09/22 10:06:02;;;;;;;6.68;4.80;;;;;;;17.96;100.00;165264.78;4981991;28;20038;-58
2022/09/22 10:08:33;;;;;;;8.07;5.82;;;;;;;18.07;100.00;165294.59;4991425;28;20023;-58
2022/09/22 10:10:58;;;;;;;10.65;4.70;;;;;;;18.16;100.00;165316.28;4975979;28;20688;-58
2022/09/22 10:13:27;;;;;;;9.35;4.55;;;;;;;18.12;100.00;165305.47;4971131;28;20030;-58
2022/09/22 10:16:05;;;;;;;7.25;4.80;;;;;;;18.27;100.00;165346.16;4980520;28;20109;-58
2022/09/22 10:18:39;;;;;;;;;;;;;;;18.37;100.00;165371.91;4972584;28;20120;-58
2022/09/22 10:21:14;;;;;;;10.32;4.95;;;;;;;18.41;100.00;165381.38;4974411;28;19913;-58
2022/09/22 10:23:40;;;;;;;13.02;5.43;;;;;;;18.56;100.00;165422.06;4977062;28;20070;-58
2022/09/22 10:26:31;;;;;;;9.18;4.65;;;;;;;18.62;100.00;165438.34;4974106;28;20026;-58
2022/09/22 10:29:16;;;;;;;8.05;4.43;;;;;;;18.81;100.00;165487.13;4976739;28;20043;-58
2022/09/22 10:32:01;;;;;;;8.82;4.13;;;;;;;18.94;100.00;165522.50;4992175;28;20073;-59
2022/09/22 10:34:48;;;;;;;6.15;3.88;;;;;;;18.88;100.00;165506.13;4989069;28;20424;-58
2022/09/22 10:37:19;;;;;;;9.63;4.82;;;;;;;19.07;100.00;165555.03;4982030;28;20504;-58
2022/09/22 10:39:52;;;;;;;9.40;3.83;;;;;;;19.16;100.00;165579.47;4990695;28;20081;-57
2022/09/22 10:42:42;;;;;;;4.63;3.42;;;;;;;19.17;100.00;165582.19;4972772;28;20398;-58
2022/09/22 10:45:18;;;;;;;5.75;3.25;;;;;;;19.00;100.00;165538.75;4971042;28;20188;-58
2022/09/22 10:47:57;;;;;;;4.32;3.17;;;;;;;19.08;100.00;165557.75;4973218;28;20034;-58
2022/09/22 10:50:34;;;;;;;5.28;3.90;;;;;;;19.12;100.00;165568.59;4971487;28;20045;-58
2022/09/22 10:53:11;;;;;;;10.48;3.38;;;;;;;19.18;100.00;165584.84;4972702;28;20026;-58
2022/09/22 10:56:04;;;;;;;10.43;5.88;;;;;;;19.04;100.00;165548.25;4971513;28;20047;-58
2022/09/22 10:58:49;;;;;;;9.63;4.97;;;;;;;19.15;100.00;165576.75;4971229;28;20496;-58
2022/09/22 11:01:42;;;;;;;7.75;3.08;;;;;;;19.18;100.00;165584.84;4972940;28;20410;-58
2022/09/22 11:04:29;;;;;;;9.18;4.80;;;;;;;19.39;100.00;165639.16;4970971;28;20042;-58
2022/09/22 11:13:37;;;;;;;12.63;6.60;;;;;;;19.21;100.00;165591.69;5010013;28;20112;-57
2022/09/22 11:16:43;;;;;;;5.68;3.22;;;;;;;19.56;100.00;165685.25;4970883;28;20043;-58
2022/09/22 11:19:47;;;;;;;6.72;2.95;;;;;;;19.49;100.00;165666.25;4970842;28;20035;-58
2022/09/22 11:22:30;;;;;;;11.02;5.18;;;;;;;19.60;100.00;165696.13;4969629;28;20061;-61
2022/09/22 11:25:14;;;;;;;6.30;2.95;;;;;;;19.62;100.00;165701.53;4966891;28;20062;-60
2022/09/22 11:28:03;;;;;;;9.85;3.50;;;;;;;19.56;100.00;165685.25;4971691;28;20042;-60
2022/09/22 11:30:37;;;;;;;5.90;3.53;;;;;;;19.33;100.00;165625.56;4970594;28;20117;-58
2022/09/22 11:33:21;;;;;;;7.82;3.72;;;;;;;19.45;100.00;165655.44;4972186;28;20110;-58
2022/09/22 11:36:08;;;;;;;6.50;4.10;;;;;;;19.51;100.00;165671.69;4970779;28;20058;-58
2022/09/22 11:39:00;;;;;;;5.88;3.58;;;;;;;19.51;100.00;165671.69;4970836;28;20023;-58
2022/09/22 11:41:37;;;;;;;8.15;4.20;;;;;;;19.54;100.00;165679.84;4972435;28;20463;-58
2022/09/22 11:44:19;;;;;;;12.55;4.85;;;;;;;19.74;100.00;165732.75;4970416;28;20101;-58
2022/09/22 11:47:12;;;;;;;8.50;3.58;;;;;;;19.86;100.00;165762.66;4972274;28;20521;-59